createdAt,value
2022-09-10T00:01:03.784Z,71.20
2022-09-10T00:03:31.824Z,71.10
2022-09-10T00:05:59.559Z,71.10
2022-09-10T00:08:27.330Z,71.20
2022-09-10T00:10:55.029Z,71.20
2022-09-10T00:13:23.582Z,71.20
2022-09-10T00:15:53.611Z,71.30
2022-09-10T00:18:24.110Z,71.30
2022-09-10T00:20:54.049Z,71.30
2022-09-10T00:23:23.867Z,71.30
2022-09-10T00:25:52.070Z,71.20
2022-09-10T00:28:20.137Z,71.20
2022-09-10T00:30:49.401Z,71.20
2022-09-10T00:33:18.490Z,71.20
2022-09-10T00:35:47.808Z,71.30
2022-09-10T00:38:18.300Z,71.20
2022-09-10T00:40:46.779Z,71.20
2022-09-10T00:43:18.681Z,71.30
2022-09-10T00:45:49.885Z,71.30
2022-09-10T00:48:21.598Z,71.40
2022-09-10T00:50:52.182Z,71.40
2022-09-10T00:53:24.036Z,71.40
2022-09-10T00:55:56.174Z,71.50
2022-09-10T00:58:27.421Z,71.50
2022-09-10T01:01:00.963Z,71.50
2022-09-10T01:03:30.280Z,71.50
2022-09-10T01:06:00.125Z,71.40
2022-09-10T01:08:28.322Z,71.40
2022-09-10T01:11:11.229Z,71.40
2022-09-10T01:13:50.052Z,71.30
2022-09-10T01:16:27.479Z,71.30
2022-09-10T01:19:02.856Z,71.40
2022-09-10T01:21:36.313Z,71.30
2022-09-10T01:24:19.532Z,71.30
2022-09-10T01:27:30.701Z,71.40
2022-09-10T01:30:06.672Z,71.50
2022-09-10T01:32:41.201Z,71.40
2022-09-10T01:35:16.377Z,71.40
2022-09-10T01:37:48.276Z,71.40
2022-09-10T01:40:17.971Z,71.30
2022-09-10T01:42:46.426Z,71.50
2022-09-10T01:45:17.368Z,71.40
2022-09-10T01:48:10.011Z,71.40
2022-09-10T01:50:44.395Z,71.40
2022-09-10T01:53:28.769Z,71.40
2022-09-10T01:56:04.091Z,71.40
2022-09-10T01:58:35.659Z,71.40
2022-09-10T02:01:12.417Z,71.40
2022-09-10T02:03:43.060Z,71.50
2022-09-10T02:06:15.711Z,71.50
2022-09-10T02:08:46.009Z,71.60
2022-09-10T02:11:14.303Z,71.50
2022-09-10T02:13:42.907Z,71.60
2022-09-10T02:16:15.998Z,72.30
2022-09-10T02:18:44.442Z,71.60
2022-09-10T02:21:13.430Z,71.60
2022-09-10T02:23:44.777Z,71.50
2022-09-10T02:26:14.361Z,71.60
2022-09-10T02:28:43.540Z,71.60
2022-09-10T02:31:12.949Z,71.60
2022-09-10T02:33:40.702Z,71.50
2022-09-10T02:36:08.830Z,71.50
2022-09-10T02:38:36.748Z,71.60
2022-09-10T02:41:04.648Z,71.60
2022-09-10T02:43:32.407Z,71.60
2022-09-10T02:46:00.350Z,71.60
2022-09-10T02:48:30.977Z,71.60
2022-09-10T02:50:59.045Z,71.60
2022-09-10T02:53:27.044Z,71.60
2022-09-10T02:55:55.177Z,71.60
2022-09-10T02:58:22.843Z,71.60
2022-09-10T03:00:50.704Z,71.60
2022-09-10T03:03:18.429Z,71.60
2022-09-10T03:05:47.588Z,71.60
2022-09-10T03:08:15.315Z,71.60
2022-09-10T03:10:43.085Z,71.60
2022-09-10T03:13:10.736Z,71.60
2022-09-10T03:15:38.461Z,71.60
2022-09-10T03:18:06.712Z,71.60
2022-09-10T03:20:34.370Z,71.50
2022-09-10T03:23:03.818Z,71.60
2022-09-10T03:25:31.481Z,71.60
2022-09-10T03:27:59.745Z,71.60
2022-09-10T03:30:27.449Z,71.70
2022-09-10T03:32:55.194Z,71.70
2022-09-10T03:35:23.259Z,71.70
2022-09-10T03:37:51.367Z,71.70
2022-09-10T03:40:20.382Z,71.80
2022-09-10T03:42:48.119Z,71.70
2022-09-10T03:45:16.995Z,71.80
2022-09-10T03:47:44.695Z,71.70
2022-09-10T03:50:12.538Z,71.80
2022-09-10T03:52:40.432Z,71.70
2022-09-10T03:55:08.976Z,71.70
2022-09-10T03:57:38.883Z,71.70
2022-09-10T04:00:08.214Z,71.60
2022-09-10T04:02:35.970Z,71.70
2022-09-10T04:05:03.698Z,71.60
2022-09-10T04:07:31.359Z,71.70
2022-09-10T04:09:59.034Z,71.70
2022-09-10T04:12:27.123Z,71.80
2022-09-10T04:14:56.956Z,71.80
2022-09-10T04:17:25.392Z,71.80
2022-09-10T04:19:53.135Z,71.90
2022-09-10T04:22:21.194Z,71.90
2022-09-10T04:24:48.897Z,71.90
2022-09-10T04:27:16.930Z,71.80
2022-09-10T04:29:44.618Z,71.90
2022-09-10T04:32:13.862Z,71.90
2022-09-10T04:34:42.488Z,71.90
2022-09-10T04:37:10.345Z,71.90
2022-09-10T04:39:38.098Z,71.90
2022-09-10T04:42:06.825Z,71.90
2022-09-10T04:44:34.528Z,71.90
2022-09-10T04:47:02.211Z,71.90
2022-09-10T04:49:31.298Z,71.90
2022-09-10T04:51:59.113Z,71.90
2022-09-10T04:54:26.937Z,71.90
2022-09-10T04:56:54.674Z,71.90
2022-09-10T04:59:22.501Z,71.90
2022-09-10T05:01:51.080Z,71.90
2022-09-10T05:04:18.794Z,71.90
2022-09-10T05:06:50.299Z,71.90
2022-09-10T05:09:18.677Z,71.90
2022-09-10T05:11:47.307Z,71.90
2022-09-10T05:14:15.549Z,72.60
2022-09-10T05:16:44.526Z,71.90
2022-09-10T05:19:17.697Z,72.00
2022-09-10T05:21:48.296Z,71.90
2022-09-10T05:24:16.661Z,72.00
2022-09-10T05:26:46.314Z,72.00
2022-09-10T05:29:14.125Z,72.00
2022-09-10T05:31:42.004Z,72.00
2022-09-10T05:34:10.069Z,72.00
2022-09-10T05:36:37.877Z,72.10
2022-09-10T05:39:07.235Z,72.10
2022-09-10T05:41:34.980Z,72.10
2022-09-10T05:44:03.025Z,72.10
2022-09-10T05:46:30.899Z,72.20
2022-09-10T05:48:58.745Z,72.20
2022-09-10T05:51:29.710Z,72.20
2022-09-10T05:53:58.255Z,72.20
2022-09-10T05:56:29.784Z,72.10
2022-09-10T05:58:57.507Z,72.10
2022-09-10T06:01:25.345Z,72.00
2022-09-10T06:03:53.044Z,72.00
2022-09-10T06:06:21.172Z,71.90
2022-09-10T06:08:53.372Z,72.00
2022-09-10T06:11:21.725Z,72.00
2022-09-10T06:13:51.106Z,72.00
2022-09-10T06:16:18.945Z,72.00
2022-09-10T06:18:46.896Z,72.00
2022-09-10T06:21:16.456Z,72.00
2022-09-10T06:23:45.047Z,72.10
2022-09-10T06:26:14.510Z,72.00
2022-09-10T06:28:43.243Z,71.90
2022-09-10T06:31:16.953Z,72.00
2022-09-10T06:33:46.179Z,71.90
2022-09-10T06:36:14.538Z,71.90
2022-09-10T06:38:43.978Z,72.00
2022-09-10T06:41:14.197Z,72.00
2022-09-10T06:43:42.353Z,72.10
2022-09-10T06:46:40.733Z,72.00
2022-09-10T06:49:03.642Z,72.10
2022-09-10T06:51:32.698Z,72.00
2022-09-10T06:54:00.553Z,72.00
2022-09-10T06:56:28.263Z,72.20
2022-09-10T06:59:00.389Z,72.20
2022-09-10T07:01:31.441Z,72.30
2022-09-10T07:04:00.953Z,72.30
2022-09-10T07:06:35.163Z,72.30
2022-09-10T07:09:07.078Z,72.40
2022-09-10T07:11:39.227Z,72.30
2022-09-10T07:14:12.736Z,72.40
2022-09-10T07:16:44.297Z,72.70
2022-09-10T07:19:13.253Z,72.40
2022-09-10T07:21:41.098Z,72.60
2022-09-10T07:24:11.045Z,72.60
2022-09-10T07:26:39.320Z,72.60
2022-09-10T07:29:07.782Z,72.40
2022-09-10T07:31:38.175Z,72.50
2022-09-10T07:34:08.520Z,72.50
2022-09-10T07:36:36.230Z,72.60
2022-09-10T07:39:04.574Z,72.70
2022-09-10T07:41:35.196Z,72.70
2022-09-10T07:44:03.508Z,72.80
2022-09-10T07:46:31.229Z,72.80
2022-09-10T07:49:00.346Z,72.80
2022-09-10T07:51:32.404Z,72.80
2022-09-10T07:54:00.700Z,72.80
2022-09-10T07:56:32.362Z,72.80
2022-09-10T07:59:00.053Z,72.90
2022-09-10T08:01:27.908Z,72.90
2022-09-10T08:03:58.569Z,72.90
2022-09-10T08:06:26.387Z,73.00
2022-09-10T08:08:55.776Z,73.00
2022-09-10T08:11:24.077Z,73.00
2022-09-10T08:13:53.761Z,73.00
2022-09-10T08:16:23.591Z,73.10
2022-09-10T08:18:53.827Z,73.20
2022-09-10T08:21:21.512Z,73.20
2022-09-10T08:23:51.832Z,73.20
2022-09-10T08:26:23.798Z,73.30
2022-09-10T08:28:51.746Z,73.20
2022-09-10T08:31:19.632Z,73.30
2022-09-10T08:33:50.462Z,73.30
2022-09-10T08:36:19.504Z,73.30
2022-09-10T08:38:47.558Z,73.20
2022-09-10T08:41:28.145Z,73.20
2022-09-10T08:43:59.182Z,73.40
2022-09-10T08:46:29.950Z,73.50
2022-09-10T08:49:09.021Z,73.50
2022-09-10T08:51:43.524Z,74.30
2022-09-10T08:54:15.737Z,73.60
2022-09-10T08:56:45.982Z,73.60
2022-09-10T08:59:22.244Z,73.70
2022-09-10T09:01:55.218Z,73.70
2022-09-10T09:04:32.947Z,73.70
2022-09-10T09:07:04.672Z,73.70
2022-09-10T09:09:32.509Z,73.70
2022-09-10T09:12:07.245Z,73.60
2022-09-10T09:14:49.006Z,73.80
2022-09-10T09:17:37.249Z,73.90
2022-09-10T09:20:14.023Z,73.90
2022-09-10T09:22:49.853Z,73.80
2022-09-10T09:25:23.686Z,73.90
2022-09-10T09:27:56.166Z,73.90
2022-09-10T09:30:28.200Z,73.70
2022-09-10T09:33:03.568Z,73.70
2022-09-10T09:35:34.617Z,73.70
2022-09-10T09:38:16.913Z,73.70
2022-09-10T09:40:47.815Z,73.70
2022-09-10T09:43:24.033Z,73.80
2022-09-10T09:45:53.480Z,73.80
2022-09-10T09:48:24.476Z,73.80
2022-09-10T09:50:56.334Z,73.90
2022-09-10T09:53:27.022Z,73.90
2022-09-10T09:55:56.419Z,74.00
2022-09-10T09:58:50.646Z,73.90
2022-09-10T10:01:21.398Z,74.00
2022-09-10T10:03:58.468Z,74.00
2022-09-10T10:06:29.692Z,74.00
2022-09-10T10:09:06.135Z,74.00
2022-09-10T10:11:56.443Z,74.10
2022-09-10T10:14:38.195Z,74.00
2022-09-10T10:17:29.569Z,74.10
2022-09-10T10:19:59.625Z,74.10
2022-09-10T10:22:30.088Z,74.10
2022-09-10T10:25:01.136Z,74.00
2022-09-10T10:27:32.619Z,74.00
2022-09-10T10:30:06.034Z,74.10
2022-09-10T10:32:41.383Z,74.00
2022-09-10T10:35:24.252Z,73.80
2022-09-10T10:38:12.132Z,73.80
2022-09-10T10:40:46.338Z,73.80
2022-09-10T10:43:26.275Z,73.80
2022-09-10T10:46:02.014Z,73.90
2022-09-10T10:48:40.996Z,73.90
2022-09-10T10:51:18.046Z,73.90
2022-09-10T10:54:02.716Z,73.90
2022-09-10T10:56:33.823Z,73.80
2022-09-10T10:59:17.314Z,73.80
2022-09-10T11:01:53.745Z,73.70
2022-09-10T11:04:31.859Z,73.90
2022-09-10T11:07:05.998Z,73.90
2022-09-10T11:09:40.878Z,74.00
2022-09-10T11:12:13.086Z,74.00
2022-09-10T11:14:48.581Z,73.90
2022-09-10T11:17:22.121Z,73.90
2022-09-10T11:20:24.745Z,73.90
2022-09-10T11:22:52.617Z,74.00
2022-09-10T11:25:26.802Z,74.00
2022-09-10T11:27:59.970Z,73.90
2022-09-10T11:30:27.791Z,73.90
2022-09-10T11:33:01.605Z,73.80
2022-09-10T11:35:31.961Z,73.70
2022-09-10T11:38:11.253Z,73.80
2022-09-10T11:40:44.549Z,73.70
2022-09-10T11:43:14.749Z,73.70
2022-09-10T11:45:52.764Z,73.90
2022-09-10T11:48:28.187Z,73.80
2022-09-10T11:51:00.918Z,73.80
2022-09-10T11:53:30.359Z,73.70
2022-09-10T11:56:20.581Z,73.70
2022-09-10T11:58:56.943Z,73.70
2022-09-10T12:01:36.229Z,73.70
2022-09-10T12:04:30.611Z,73.80
2022-09-10T12:07:05.380Z,73.70
2022-09-10T12:09:43.542Z,73.70
2022-09-10T12:12:17.469Z,73.70
2022-09-10T12:14:45.449Z,73.60
2022-09-10T12:17:18.356Z,73.40
2022-09-10T12:19:50.916Z,73.40
2022-09-10T12:22:22.471Z,73.30
2022-09-10T12:24:56.503Z,74.10
2022-09-10T12:27:45.050Z,73.40
2022-09-10T12:31:00.880Z,73.50
2022-09-10T12:34:09.679Z,73.60
2022-09-10T12:37:17.777Z,73.60
2022-09-10T12:39:46.865Z,73.60
2022-09-10T12:42:35.510Z,73.30
2022-09-10T12:45:03.414Z,73.30
2022-09-10T12:47:47.241Z,73.30
2022-09-10T12:50:30.668Z,73.30
2022-09-10T12:53:32.127Z,73.30
2022-09-10T12:56:15.525Z,73.20
2022-09-10T12:58:59.105Z,73.30
2022-09-10T13:01:41.285Z,73.40
2022-09-10T13:04:24.261Z,73.30
2022-09-10T13:06:55.100Z,73.20
2022-09-10T13:09:27.513Z,73.00
2022-09-10T13:11:59.890Z,72.80
2022-09-10T13:14:30.894Z,72.60
2022-09-10T13:16:58.716Z,72.60
2022-09-10T13:19:50.025Z,72.60
2022-09-10T13:23:04.176Z,72.70
2022-09-10T13:25:39.715Z,72.60
2022-09-10T13:28:44.288Z,72.70
2022-09-10T13:31:22.247Z,72.70
2022-09-10T13:34:05.330Z,72.70
2022-09-10T13:36:41.779Z,72.70
2022-09-10T13:39:28.979Z,73.00
2022-09-10T13:42:25.602Z,73.20
2022-09-10T13:45:06.196Z,73.30
2022-09-10T13:47:40.880Z,73.40
2022-09-10T13:50:15.447Z,73.50
2022-09-10T13:52:47.061Z,73.60
2022-09-10T13:55:20.733Z,73.60
2022-09-10T13:57:50.668Z,73.80
2022-09-10T14:00:24.926Z,73.70
2022-09-10T14:02:55.958Z,73.70
2022-09-10T14:05:36.290Z,73.60
2022-09-10T14:08:11.446Z,73.60
2022-09-10T14:10:51.390Z,73.50
2022-09-10T14:13:23.581Z,73.40
2022-09-10T14:15:54.386Z,73.40
2022-09-10T14:18:31.873Z,73.40
2022-09-10T14:21:00.065Z,73.40
2022-09-10T14:23:29.545Z,73.50
2022-09-10T14:26:11.336Z,73.60
2022-09-10T14:28:50.894Z,73.60
2022-09-10T14:31:35.131Z,73.70
2022-09-10T14:34:33.073Z,73.60
2022-09-10T14:37:01.344Z,73.60
2022-09-10T14:39:29.875Z,73.60
2022-09-10T14:42:22.960Z,73.40
2022-09-10T14:44:51.001Z,73.50
2022-09-10T14:47:28.952Z,74.30
2022-09-10T14:50:30.947Z,73.60
2022-09-10T14:52:59.202Z,74.40
2022-09-10T14:55:28.280Z,73.60
2022-09-10T14:57:57.216Z,73.60
2022-09-10T15:00:25.924Z,73.60
2022-09-10T15:02:55.916Z,73.60
2022-09-10T15:05:24.965Z,73.70
2022-09-10T15:07:54.044Z,73.70
2022-09-10T15:10:21.801Z,73.70
2022-09-10T15:12:52.234Z,73.70
2022-09-10T15:15:19.920Z,73.80
2022-09-10T15:17:48.009Z,73.70
2022-09-10T15:20:17.422Z,73.70
2022-09-10T15:22:45.274Z,73.70
2022-09-10T15:25:28.663Z,73.70
2022-09-10T15:27:56.434Z,73.80
2022-09-10T15:30:25.737Z,73.70
2022-09-10T15:32:54.309Z,73.70
2022-09-10T15:35:23.090Z,73.70
2022-09-10T15:37:51.180Z,73.70
2022-09-10T15:40:20.513Z,73.80
2022-09-10T15:42:48.606Z,73.80
2022-09-10T15:45:16.375Z,73.80
2022-09-10T15:47:44.195Z,73.80
2022-09-10T15:50:12.666Z,73.80
2022-09-10T15:52:40.456Z,73.80
2022-09-10T15:55:09.028Z,73.80
2022-09-10T15:57:39.458Z,73.70
2022-09-10T16:00:08.630Z,73.70
2022-09-10T16:02:36.359Z,73.70
2022-09-10T16:05:06.055Z,73.70
2022-09-10T16:07:33.893Z,73.70
2022-09-10T16:10:02.061Z,73.70
2022-09-10T16:12:30.093Z,73.60
2022-09-10T16:15:00.771Z,73.60
2022-09-10T16:17:28.904Z,73.70
2022-09-10T16:19:56.867Z,73.70
2022-09-10T16:22:24.877Z,73.70
2022-09-10T16:24:52.609Z,73.70
2022-09-10T16:27:20.724Z,73.60
2022-09-10T16:29:48.620Z,73.70
2022-09-10T16:32:17.827Z,73.70
2022-09-10T16:34:45.617Z,73.60
2022-09-10T16:37:14.183Z,73.70
2022-09-10T16:39:41.993Z,73.60
2022-09-10T16:42:09.727Z,73.60
2022-09-10T16:44:37.622Z,73.50
2022-09-10T16:47:05.524Z,73.50
2022-09-10T16:49:34.658Z,73.50
2022-09-10T16:52:02.513Z,73.50
2022-09-10T16:54:31.821Z,73.40
2022-09-10T16:57:03.421Z,73.40
2022-09-10T16:59:31.238Z,73.40
2022-09-10T17:02:00.564Z,73.40
2022-09-10T17:04:29.303Z,73.30
2022-09-10T17:06:59.012Z,73.30
2022-09-10T17:09:26.974Z,73.30
2022-09-10T17:11:54.722Z,73.30
2022-09-10T17:14:22.623Z,73.30
2022-09-10T17:16:50.345Z,73.40
2022-09-10T17:19:19.926Z,73.30
2022-09-10T17:21:51.472Z,73.40
2022-09-10T17:24:22.421Z,73.40
2022-09-10T17:26:50.488Z,73.30
2022-09-10T17:29:20.423Z,73.30
2022-09-10T17:31:48.276Z,73.40
2022-09-10T17:34:17.110Z,73.40
2022-09-10T17:36:46.785Z,73.40
2022-09-10T17:39:15.951Z,73.30
2022-09-10T17:41:45.655Z,73.40
2022-09-10T17:44:14.515Z,73.30
2022-09-10T17:46:42.584Z,73.30
2022-09-10T17:49:13.647Z,73.30
2022-09-10T17:51:42.011Z,73.40
2022-09-10T17:54:10.339Z,73.40
2022-09-10T17:56:38.662Z,73.40
2022-09-10T17:59:07.799Z,73.40
2022-09-10T18:01:37.730Z,73.50
2022-09-10T18:04:09.525Z,73.50
2022-09-10T18:06:37.616Z,73.40
2022-09-10T18:09:06.965Z,73.50
2022-09-10T18:11:37.173Z,73.50
2022-09-10T18:14:07.134Z,73.60
2022-09-10T18:16:36.414Z,73.50
2022-09-10T18:19:12.867Z,73.50
2022-09-10T18:21:42.393Z,73.50
2022-09-10T18:24:13.145Z,73.50
2022-09-10T18:26:43.365Z,73.50
2022-09-10T18:29:15.481Z,73.50
2022-09-10T18:31:45.174Z,73.40
2022-09-10T18:34:17.447Z,73.40
2022-09-10T18:36:47.634Z,73.40
2022-09-10T18:39:16.018Z,73.30
2022-09-10T18:41:43.904Z,73.30
2022-09-10T18:44:16.470Z,73.30
2022-09-10T18:46:45.468Z,73.30
2022-09-10T18:49:17.887Z,73.20
2022-09-10T18:51:49.225Z,73.30
2022-09-10T18:54:18.068Z,73.30
2022-09-10T18:56:47.375Z,73.30
2022-09-10T18:59:20.051Z,73.40
2022-09-10T19:01:48.976Z,73.30
2022-09-10T19:04:20.021Z,73.30
2022-09-10T19:06:49.102Z,73.30
2022-09-10T19:09:18.711Z,73.30
2022-09-10T19:11:48.430Z,73.30
2022-09-10T19:14:20.341Z,73.40
2022-09-10T19:16:49.664Z,73.40
2022-09-10T19:19:19.618Z,73.40
2022-09-10T19:21:48.887Z,73.40
2022-09-10T19:24:19.350Z,73.50
2022-09-10T19:26:50.932Z,73.50
2022-09-10T19:29:22.360Z,73.50
2022-09-10T19:31:50.808Z,73.50
2022-09-10T19:34:20.118Z,73.60
2022-09-10T19:36:47.878Z,73.60
2022-09-10T19:39:17.668Z,73.70
2022-09-10T19:41:46.676Z,73.60
2022-09-10T19:44:15.975Z,73.70
2022-09-10T19:46:45.794Z,73.70
2022-09-10T19:49:14.025Z,73.70
2022-09-10T19:51:42.848Z,73.60
2022-09-10T19:54:12.026Z,73.70
2022-09-10T19:56:42.456Z,73.50
2022-09-10T19:59:10.904Z,73.50
2022-09-10T20:01:40.825Z,73.60
2022-09-10T20:04:12.043Z,73.50
2022-09-10T20:06:40.291Z,73.50
2022-09-10T20:09:09.853Z,73.60
2022-09-10T20:11:38.013Z,73.60
2022-09-10T20:14:07.965Z,73.60
2022-09-10T20:16:37.290Z,73.70
2022-09-10T20:19:05.782Z,73.80
2022-09-10T20:21:36.947Z,73.70
2022-09-10T20:24:06.761Z,73.80
2022-09-10T20:26:37.341Z,73.80
2022-09-10T20:29:07.252Z,73.60
2022-09-10T20:31:37.149Z,73.70
2022-09-10T20:34:06.916Z,73.60
2022-09-10T20:36:37.871Z,73.60
2022-09-10T20:39:06.759Z,73.60
2022-09-10T20:41:34.563Z,73.60
2022-09-10T20:44:03.095Z,73.50
2022-09-10T20:46:31.824Z,73.50
2022-09-10T20:49:02.793Z,73.50
2022-09-10T20:51:32.730Z,73.60
2022-09-10T20:54:02.402Z,73.50
2022-09-10T20:56:30.522Z,73.60
2022-09-10T20:58:59.489Z,73.60
2022-09-10T21:01:28.464Z,73.70
2022-09-10T21:03:59.403Z,73.70
2022-09-10T21:06:29.220Z,73.70
2022-09-10T21:08:57.210Z,73.60
2022-09-10T21:11:28.505Z,73.60
2022-09-10T21:13:58.221Z,73.70
2022-09-10T21:16:28.604Z,73.70
2022-09-10T21:18:57.807Z,73.70
2022-09-10T21:21:28.016Z,73.70
2022-09-10T21:23:57.462Z,73.70
2022-09-10T21:26:28.967Z,73.80
2022-09-10T21:28:58.676Z,73.90
2022-09-10T21:31:28.139Z,73.90
2022-09-10T21:34:01.962Z,73.90
2022-09-10T21:36:31.583Z,73.90
2022-09-10T21:39:00.969Z,73.80
2022-09-10T21:41:32.124Z,73.90
2022-09-10T21:44:00.726Z,73.90
2022-09-10T21:46:29.418Z,74.00
2022-09-10T21:48:57.256Z,74.10
2022-09-10T21:51:25.172Z,74.00
2022-09-10T21:53:54.782Z,74.00
2022-09-10T21:56:23.272Z,74.00
2022-09-10T21:58:52.806Z,74.00
2022-09-10T22:01:22.274Z,73.90
2022-09-10T22:03:52.234Z,73.80
2022-09-10T22:06:22.972Z,73.90
2022-09-10T22:08:53.045Z,73.90
2022-09-10T22:11:23.298Z,73.90
2022-09-10T22:13:54.377Z,74.60
2022-09-10T22:16:23.304Z,73.80
2022-09-10T22:18:51.317Z,73.80
2022-09-10T22:21:19.253Z,73.70
2022-09-10T22:23:47.012Z,73.70
2022-09-10T22:26:16.555Z,73.70
2022-09-10T22:28:44.948Z,73.60
2022-09-10T22:31:15.931Z,74.00
2022-09-10T22:33:45.389Z,73.60
2022-09-10T22:36:14.758Z,73.70
2022-09-10T22:38:43.068Z,73.50
2022-09-10T22:41:11.194Z,73.50
2022-09-10T22:43:39.047Z,73.60
2022-09-10T22:46:07.946Z,73.60
2022-09-10T22:48:38.663Z,73.60
2022-09-10T22:51:07.749Z,73.70
2022-09-10T22:53:35.978Z,73.60
2022-09-10T22:56:03.975Z,73.70
2022-09-10T22:58:32.879Z,73.50
2022-09-10T23:06:26.400Z,73.40
2022-09-10T23:08:55.809Z,73.40
2022-09-10T23:11:26.131Z,73.30
2022-09-10T23:13:57.361Z,73.40
2022-09-10T23:16:28.767Z,73.50
2022-09-10T23:18:58.175Z,73.60
2022-09-10T23:21:29.069Z,73.60
2022-09-10T23:23:58.835Z,73.70
2022-09-10T23:26:27.883Z,73.80
2022-09-10T23:28:56.506Z,73.70
2022-09-10T23:31:26.043Z,73.80
2022-09-10T23:33:57.869Z,73.70
2022-09-10T23:36:27.991Z,73.80
2022-09-10T23:38:55.697Z,73.80
2022-09-10T23:41:23.412Z,73.90
2022-09-10T23:43:51.219Z,73.90
2022-09-10T23:46:19.033Z,73.90
2022-09-10T23:48:46.927Z,74.00
2022-09-10T23:51:17.455Z,73.90
2022-09-10T23:53:48.109Z,74.00
2022-09-10T23:56:18.407Z,73.90
2022-09-10T23:58:46.180Z,74.00
